Time;durP1;ratioP1;P1;durP2;ratioP2;P2;SDS_P1;SDS_P2;PMS_P1;PMS_P2;Temp;Humidity;BMP_temperature;BMP_pressure;BME280_temperature;BME280_humidity;BME280_pressure;Samples;Min_cycle;Max_cycle;Signal;HPM_P1;HPM_P2
2023/01/28 00:02:12;;;;;;;10.15;7.95;;;2.30;99.90;;;;;;5072372;28;20435;-64
2023/01/28 00:04:39;;;;;;;10.55;8.02;;;2.20;99.90;;;;;;5073510;28;20470;-64
2023/01/28 00:07:04;;;;;;;11.68;8.02;;;2.30;99.90;;;;;;5073419;28;20047;-64
2023/01/28 00:09:30;;;;;;;15.82;8.52;;;2.30;99.90;;;;;;5073250;28;20481;-64
2023/01/28 00:11:55;;;;;;;9.65;7.38;;;2.20;99.90;;;;;;5073194;28;20105;-64
2023/01/28 00:14:21;;;;;;;9.13;7.22;;;2.30;99.90;;;;;;5073292;28;20025;-64
2023/01/28 00:16:46;;;;;;;9.93;7.60;;;2.20;99.90;;;;;;5073115;28;20039;-64
2023/01/28 00:19:12;;;;;;;11.88;7.90;;;2.20;99.90;;;;;;5072928;28;20414;-63
2023/01/28 00:21:38;;;;;;;8.75;7.55;;;2.20;99.90;;;;;;5073315;28;20033;-64
2023/01/28 00:24:05;;;;;;;11.60;9.00;;;2.20;99.90;;;;;;5073082;28;20028;-63
2023/01/28 00:26:31;;;;;;;12.80;9.60;;;2.20;99.90;;;;;;5072107;28;20017;-63
2023/01/28 00:28:56;;;;;;;12.63;9.40;;;2.20;99.90;;;;;;5071818;28;20139;-65
2023/01/28 00:31:26;;;;;;;12.68;9.27;;;2.20;99.90;;;;;;5073122;28;20083;-63
2023/01/28 00:33:52;;;;;;;12.35;9.85;;;2.20;99.90;;;;;;5073081;28;20035;-63
2023/01/28 00:36:19;;;;;;;15.40;10.63;;;2.20;99.90;;;;;;5073176;28;20025;-63
2023/01/28 00:38:54;;;;;;;17.10;10.07;;;2.20;99.90;;;;;;5072813;28;20447;-64
2023/01/28 00:41:22;;;;;;;14.25;9.90;;;2.20;99.90;;;;;;5075779;28;20016;-63
2023/01/28 00:43:49;;;;;;;11.75;10.02;;;2.20;99.90;;;;;;5077176;28;20390;-64
2023/01/28 00:46:15;;;;;;;13.27;9.68;;;2.10;99.90;;;;;;5076852;28;20024;-64
2023/01/28 00:48:41;;;;;;;13.00;9.82;;;2.10;99.90;;;;;;5076774;28;20021;-63
2023/01/28 00:51:09;;;;;;;16.13;11.25;;;2.10;99.90;;;;;;5076960;28;20033;-64
2023/01/28 00:53:36;;;;;;;14.75;10.48;;;2.10;99.90;;;;;;5075424;28;20525;-64
2023/01/28 00:56:02;;;;;;;14.13;11.00;;;2.00;99.90;;;;;;5076868;28;20097;-64
2023/01/28 00:58:28;;;;;;;13.95;9.82;;;2.00;99.90;;;;;;5076578;28;20154;-64
2023/01/28 01:00:53;;;;;;;15.32;10.88;;;2.00;99.90;;;;;;5076604;28;20052;-64
2023/01/28 01:03:19;;;;;;;13.63;10.25;;;2.00;99.90;;;;;;5076491;28;20060;-63
2023/01/28 01:05:45;;;;;;;12.25;10.15;;;2.00;99.90;;;;;;5076715;28;20053;-63
2023/01/28 01:08:11;;;;;;;13.75;10.55;;;2.00;99.90;;;;;;5076455;28;20036;-64
2023/01/28 01:10:37;;;;;;;16.23;10.57;;;2.00;99.90;;;;;;5075162;28;20029;-64
2023/01/28 01:13:05;;;;;;;14.95;10.50;;;1.90;99.90;;;;;;5076552;28;20474;-64
2023/01/28 01:15:31;;;;;;;17.55;10.95;;;2.00;99.90;;;;;;5075361;28;20598;-63
2023/01/28 01:17:57;;;;;;;12.45;9.82;;;2.00;99.90;;;;;;5076109;28;20062;-63
2023/01/28 01:20:26;;;;;;;13.73;9.98;;;1.90;99.90;;;;;;5076587;28;20036;-63
2023/01/28 01:22:52;;;;;;;13.73;10.07;;;1.90;99.90;;;;;;5076692;28;20474;-63
2023/01/28 01:25:18;;;;;;;16.20;10.15;;;2.00;99.90;;;;;;5076120;28;20028;-64
2023/01/28 01:27:45;;;;;;;13.82;9.82;;;1.90;99.90;;;;;;5076303;28;20028;-64
2023/01/28 01:30:11;;;;;;;17.58;11.05;;;2.00;99.90;;;;;;5075963;28;20027;-64
2023/01/28 01:32:37;;;;;;;15.40;10.07;;;1.90;99.90;;;;;;5076019;28;20024;-63
2023/01/28 01:35:07;;;;;;;13.05;9.35;;;1.90;99.90;;;;;;5076161;28;20051;-64
2023/01/28 01:37:34;;;;;;;14.43;9.30;;;1.90;99.90;;;;;;5076049;28;20081;-64
2023/01/28 01:40:02;;;;;;;15.60;10.48;;;1.80;99.90;;;;;;5076083;28;20017;-64
2023/01/28 01:42:27;;;;;;;16.67;9.43;;;1.90;99.90;;;;;;5076057;28;20107;-64
2023/01/28 01:45:13;;;;;;;17.17;9.98;;;1.80;99.90;;;;;;5074729;28;20063;-63
2023/01/28 01:48:12;;;;;;;15.23;9.70;;;1.80;99.90;;;;;;5075716;28;20409;-63
2023/01/28 01:50:43;;;;;;;12.80;9.00;;;1.80;99.90;;;;;;5075169;28;20493;-63
2023/01/28 01:53:14;;;;;;;13.68;9.48;;;1.70;99.90;;;;;;5075648;28;20028;-63
2023/01/28 01:55:44;;;;;;;14.77;9.45;;;1.80;99.90;;;;;;5075617;28;20117;-64
2023/01/28 01:58:13;;;;;;;13.00;9.38;;;1.70;99.90;;;;;;5075425;28;20025;-64
2023/01/28 02:00:41;;;;;;;15.77;9.73;;;1.70;99.90;;;;;;5075522;28;20082;-64
2023/01/28 02:03:07;;;;;;;14.45;9.95;;;1.70;99.90;;;;;;5074525;28;20020;-64
2023/01/28 02:05:33;;;;;;;13.35;9.70;;;1.70;99.90;;;;;;5075435;28;20028;-64
2023/01/28 02:08:19;;;;;;;16.05;9.85;;;1.70;99.90;;;;;;5075309;28;20024;-64
2023/01/28 02:10:47;;;;;;;15.95;10.73;;;1.70;99.90;;;;;;5075169;28;20028;-64
2023/01/28 02:13:15;;;;;;;14.75;10.35;;;1.70;99.90;;;;;;5075221;28;20051;-63
2023/01/28 02:15:41;;;;;;;16.58;11.15;;;1.70;99.90;;;;;;5075220;28;20363;-64
2023/01/28 02:18:07;;;;;;;14.85;10.77;;;1.80;99.90;;;;;;5073824;28;20520;-64
2023/01/28 02:20:55;;;;;;;14.57;9.95;;;1.70;99.90;;;;;;5075379;28;20107;-64
2023/01/28 02:23:49;;;;;;;14.63;10.32;;;1.70;99.90;;;;;;5075058;28;20081;-63
2023/01/28 02:26:28;;;;;;;18.13;10.68;;;1.70;99.90;;;;;;5074872;28;20032;-64
2023/01/28 02:29:20;;;;;;;15.02;10.73;;;1.70;99.90;;;;;;5075038;28;20497;-63
2023/01/28 02:31:57;;;;;;;16.02;10.40;;;1.60;99.90;;;;;;5074823;28;20024;-63
2023/01/28 02:34:34;;;;;;;16.02;10.98;;;1.60;99.90;;;;;;5073888;28;20386;-63
2023/01/28 02:37:11;;;;;;;15.43;10.50;;;1.60;99.90;;;;;;5074800;28;20032;-64
2023/01/28 02:39:51;;;;;;;15.95;10.88;;;1.60;99.90;;;;;;5074843;28;20397;-64
2023/01/28 02:42:24;;;;;;;15.18;10.10;;;1.60;99.90;;;;;;5074602;28;20024;-63
2023/01/28 02:44:49;;;;;;;16.48;10.73;;;1.60;99.90;;;;;;5074599;28;20466;-63
2023/01/28 02:50:04;;;;;;;17.40;11.18;;;1.50;99.90;;;;;;5074334;28;20027;-64
2023/01/28 02:53:42;;;;;;;19.10;11.63;;;1.40;99.90;;;;;;5074713;28;20028;-64
2023/01/28 02:56:31;;;;;;;16.48;11.23;;;1.40;99.90;;;;;;5074242;28;20021;-63
2023/01/28 02:59:41;;;;;;;14.45;10.02;;;1.40;99.90;;;;;;5074346;28;20027;-64
2023/01/28 03:02:21;;;;;;;15.13;10.68;;;1.50;99.90;;;;;;5073282;28;20025;-63
2023/01/28 03:04:57;;;;;;;13.45;9.70;;;1.50;99.90;;;;;;5074026;28;20024;-63
2023/01/28 03:07:26;;;;;;;16.88;10.75;;;1.50;99.90;;;;;;5074434;28;20047;-64
2023/01/28 03:09:52;;;;;;;14.68;10.00;;;1.40;99.90;;;;;;5074114;28;20028;-63
2023/01/28 03:38:40;;;;;;;13.65;10.50;;;1.30;99.90;;;;;;5073291;28;20398;-64
2023/01/28 03:41:07;;;;;;;;;;;1.20;99.90;;;;;;5074320;28;20024;-63
2023/01/28 03:43:33;;;;;;;15.20;10.13;;;1.20;99.90;;;;;;5073525;28;19969;-63
2023/01/28 03:45:59;;;;;;;14.32;10.27;;;1.20;99.90;;;;;;5073749;28;20024;-63
2023/01/28 03:48:26;;;;;;;16.65;10.10;;;1.20;99.90;;;;;;5073574;28;20051;-63
2023/01/28 03:50:54;;;;;;;13.25;10.25;;;1.20;99.90;;;;;;5073685;28;20390;-63
2023/01/28 03:53:20;;;;;;;14.63;10.38;;;1.20;99.90;;;;;;5073434;28;20077;-63
2023/01/28 03:55:48;;;;;;;13.77;10.73;;;1.20;99.90;;;;;;5073351;28;20036;-63
2023/01/28 03:58:16;;;;;;;16.17;10.98;;;1.10;99.90;;;;;;5073529;28;20033;-63
2023/01/28 04:00:42;;;;;;;22.67;11.38;;;1.20;99.90;;;;;;5073319;28;20021;-63
2023/01/28 04:03:15;;;;;;;15.43;10.90;;;1.10;99.90;;;;;;5072161;28;20151;-64
2023/01/28 04:05:44;;;;;;;14.48;10.63;;;1.10;99.90;;;;;;5073555;28;20051;-64
2023/01/28 04:08:10;;;;;;;12.02;10.13;;;1.10;99.90;;;;;;5073226;28;20390;-63
2023/01/28 04:10:38;;;;;;;12.98;10.77;;;1.10;99.90;;;;;;5073431;28;20359;-64
2023/01/28 04:13:04;;;;;;;12.88;10.30;;;1.10;99.90;;;;;;5073257;28;20024;-64
2023/01/28 04:15:30;;;;;;;15.65;11.27;;;1.00;99.90;;;;;;5073090;28;20036;-64
2023/01/28 04:17:55;;;;;;;12.70;10.73;;;1.10;99.90;;;;;;5072869;28;20049;-63
2023/01/28 04:20:21;;;;;;;14.93;11.18;;;1.10;99.90;;;;;;5071833;28;20050;-63
2023/01/28 04:22:46;;;;;;;15.45;11.40;;;1.10;99.90;;;;;;5073078;28;20394;-63
2023/01/28 04:25:12;;;;;;;13.25;10.18;;;1.00;99.90;;;;;;5073096;28;20029;-63
2023/01/28 04:27:38;;;;;;;15.80;10.40;;;1.10;99.90;;;;;;5073081;28;20021;-63
2023/01/28 04:30:04;;;;;;;12.95;10.48;;;1.00;99.90;;;;;;5073064;28;20493;-63
2023/01/28 04:32:29;;;;;;;16.38;10.07;;;1.10;99.90;;;;;;5072995;28;20070;-63
2023/01/28 04:34:55;;;;;;;13.82;10.77;;;1.00;99.90;;;;;;5072919;28;20025;-63
2023/01/28 04:37:20;;;;;;;12.95;10.00;;;1.00;99.90;;;;;;5073162;28;20025;-63
2023/01/28 04:39:46;;;;;;;13.85;9.82;;;1.00;99.90;;;;;;5072775;28;20033;-63
2023/01/28 04:42:11;;;;;;;14.27;10.20;;;1.00;99.90;;;;;;5072923;28;20025;-63
2023/01/28 04:44:37;;;;;;;11.18;9.43;;;1.00;99.90;;;;;;5073105;28;20021;-63
2023/01/28 04:47:02;;;;;;;12.13;10.13;;;1.00;99.90;;;;;;5072863;28;20498;-63
2023/01/28 04:49:28;;;;;;;13.68;9.73;;;1.00;99.90;;;;;;5073083;28;20108;-64
2023/01/28 04:51:53;;;;;;;10.38;8.80;;;1.00;99.90;;;;;;5072961;28;20078;-64
2023/01/28 04:54:19;;;;;;;12.95;9.57;;;0.90;99.90;;;;;;5071625;28;20024;-63
2023/01/28 04:56:44;;;;;;;10.50;8.32;;;0.90;99.90;;;;;;5072727;28;20033;-63
2023/01/28 04:59:10;;;;;;;13.52;9.27;;;0.90;99.90;;;;;;5072726;28;20036;-63
2023/01/28 05:01:35;;;;;;;12.73;9.60;;;1.00;99.90;;;;;;5072782;28;20041;-64
2023/01/28 05:04:04;;;;;;;12.93;9.43;;;1.00;99.90;;;;;;5072646;28;20035;-64
2023/01/28 05:06:30;;;;;;;11.40;8.88;;;1.00;99.90;;;;;;5072671;28;20027;-63
2023/01/28 05:08:56;;;;;;;11.57;9.95;;;1.00;99.90;;;;;;5072675;28;20075;-63
2023/01/28 05:11:22;;;;;;;12.27;8.98;;;1.00;99.90;;;;;;5072569;28;20032;-63
2023/01/28 05:13:48;;;;;;;11.75;9.43;;;0.90;99.90;;;;;;5072610;28;20107;-63
2023/01/28 05:16:14;;;;;;;12.60;9.40;;;0.90;99.90;;;;;;5071626;28;20025;-63
2023/01/28 05:18:40;;;;;;;13.52;10.05;;;0.90;99.90;;;;;;5072385;28;20125;-63
2023/01/28 05:21:05;;;;;;;12.20;9.90;;;0.90;99.90;;;;;;5072605;28;20024;-64
2023/01/28 05:23:31;;;;;;;11.98;9.63;;;0.80;99.90;;;;;;5071231;28;20383;-63
2023/01/28 05:25:56;;;;;;;11.07;9.20;;;0.90;99.90;;;;;;5074075;28;20028;-63
2023/01/28 05:28:22;;;;;;;13.43;10.15;;;0.90;99.90;;;;;;5076102;28;20367;-63
2023/01/28 05:30:47;;;;;;;14.32;10.68;;;0.80;99.90;;;;;;5076051;28;20474;-64
2023/01/28 05:33:13;;;;;;;12.82;10.00;;;0.90;99.90;;;;;;5076038;28;20107;-64
2023/01/28 05:35:38;;;;;;;13.80;9.55;;;0.90;99.90;;;;;;5076211;28;20033;-63
2023/01/28 05:38:04;;;;;;;15.57;9.90;;;0.80;99.90;;;;;;5076098;28;20351;-64
2023/01/28 05:40:30;;;;;;;12.75;10.10;;;0.90;99.90;;;;;;5075897;28;20035;-63
2023/01/28 05:42:56;;;;;;;13.88;10.15;;;0.90;99.90;;;;;;5075800;28;20444;-63
2023/01/28 05:45:21;;;;;;;12.75;10.32;;;0.90;99.90;;;;;;5075770;28;20029;-63
2023/01/28 05:47:47;;;;;;;13.60;10.30;;;0.90;99.90;;;;;;5075690;28;20077;-63
2023/01/28 05:50:14;;;;;;;13.63;10.02;;;0.80;99.90;;;;;;5075724;28;20029;-63
2023/01/28 05:52:39;;;;;;;15.15;10.52;;;0.80;99.90;;;;;;5074436;28;20148;-64
2023/01/28 05:55:06;;;;;;;13.95;9.85;;;0.80;99.90;;;;;;5075677;28;20105;-64
2023/01/28 05:57:32;;;;;;;15.35;10.45;;;0.80;99.90;;;;;;5075818;28;20109;-65
2023/01/28 05:59:57;;;;;;;15.32;10.65;;;0.80;99.90;;;;;;5075551;28;20486;-63
2023/01/28 06:02:23;;;;;;;15.82;10.13;;;0.80;99.90;;;;;;5075452;28;20031;-64
2023/01/28 06:04:48;;;;;;;12.85;10.43;;;0.80;99.90;;;;;;5075429;28;20021;-63
2023/01/28 06:07:18;;;;;;;13.75;10.80;;;0.80;99.90;;;;;;5075388;28;20482;-63
2023/01/28 06:09:44;;;;;;;16.27;10.52;;;0.70;99.90;;;;;;5074187;28;20077;-63
2023/01/28 06:12:09;;;;;;;15.25;10.57;;;0.80;99.90;;;;;;5075224;28;20386;-63
2023/01/28 06:14:35;;;;;;;17.02;11.13;;;0.80;99.90;;;;;;5075164;28;20541;-63
2023/01/28 06:17:00;;;;;;;14.02;10.85;;;0.70;99.90;;;;;;5075154;28;20082;-67
2023/01/28 06:19:26;;;;;;;15.40;10.38;;;0.70;99.90;;;;;;5075033;28;20029;-63
2023/01/28 06:21:51;;;;;;;14.60;10.25;;;0.70;99.90;;;;;;5075110;28;20024;-64
2023/01/28 06:24:17;;;;;;;14.10;11.02;;;0.70;99.90;;;;;;5075288;28;20021;-63
2023/01/28 06:26:43;;;;;;;18.30;10.68;;;0.70;99.90;;;;;;5075057;28;20025;-63
2023/01/28 06:29:09;;;;;;;14.93;11.38;;;0.80;99.90;;;;;;5074990;28;20028;-63
2023/01/28 06:31:35;;;;;;;16.10;10.30;;;0.70;99.90;;;;;;5075136;28;20025;-63
2023/01/28 06:34:00;;;;;;;14.98;10.52;;;0.80;99.90;;;;;;5075122;28;20154;-63
2023/01/28 06:36:26;;;;;;;15.55;11.20;;;0.70;99.90;;;;;;5074746;28;20025;-63
2023/01/28 06:38:52;;;;;;;13.27;10.57;;;0.70;99.90;;;;;;5074700;28;20496;-63
2023/01/28 06:41:17;;;;;;;12.38;9.82;;;0.70;99.90;;;;;;5074929;28;20039;-64
2023/01/28 06:43:43;;;;;;;14.13;10.80;;;0.70;99.90;;;;;;5074907;28;20106;-63
2023/01/28 06:46:08;;;;;;;13.38;11.13;;;0.60;99.90;;;;;;5074637;28;20028;-63
2023/01/28 06:48:34;;;;;;;13.00;10.05;;;0.60;99.90;;;;;;5074823;28;20031;-63
2023/01/28 06:50:59;;;;;;;13.20;10.18;;;0.60;99.90;;;;;;5074814;28;20031;-63
2023/01/28 06:53:25;;;;;;;15.18;10.45;;;0.60;99.90;;;;;;5073315;28;20059;-63
2023/01/28 06:55:50;;;;;;;11.50;10.05;;;0.60;99.90;;;;;;5074427;28;20028;-63
2023/01/28 06:58:16;;;;;;;13.65;11.30;;;0.70;99.90;;;;;;5074557;28;20385;-63
2023/01/28 07:00:42;;;;;;;14.23;10.25;;;0.60;99.90;;;;;;5074296;28;20024;-63
2023/01/28 07:03:07;;;;;;;14.98;11.18;;;0.60;99.90;;;;;;5074317;28;20023;-63
2023/01/28 07:05:33;;;;;;;17.95;10.45;;;0.60;99.90;;;;;;5074472;28;20029;-64
2023/01/28 07:07:59;;;;;;;15.40;11.07;;;0.70;99.90;;;;;;5074445;28;20016;-63
2023/01/28 07:10:24;;;;;;;13.60;10.25;;;0.60;99.90;;;;;;5074365;28;20111;-63
2023/01/28 07:12:50;;;;;;;15.52;10.35;;;0.60;99.90;;;;;;5074116;28;20056;-63
2023/01/28 07:15:15;;;;;;;14.40;10.60;;;0.50;99.90;;;;;;5074031;28;20489;-63
2023/01/28 07:17:41;;;;;;;16.77;10.57;;;0.60;99.90;;;;;;5073865;28;20048;-64
2023/01/28 07:20:09;;;;;;;13.98;10.63;;;0.50;99.90;;;;;;5073862;28;20021;-64
2023/01/28 07:22:36;;;;;;;12.18;10.10;;;0.50;99.90;;;;;;5074125;28;20061;-63
2023/01/28 07:25:02;;;;;;;12.70;10.00;;;0.50;99.90;;;;;;5073979;28;20021;-63
2023/01/28 07:27:27;;;;;;;15.10;10.43;;;0.50;99.90;;;;;;5074158;28;20474;-63
2023/01/28 07:29:53;;;;;;;13.77;10.70;;;0.60;99.90;;;;;;5073830;28;20033;-63
2023/01/28 07:32:18;;;;;;;16.15;11.10;;;0.50;99.90;;;;;;5072537;28;20028;-63
2023/01/28 07:34:44;;;;;;;14.48;11.23;;;0.60;99.90;;;;;;5073957;28;20024;-64
2023/01/28 07:37:09;;;;;;;15.80;11.07;;;0.60;99.90;;;;;;5073664;28;20028;-63
2023/01/28 07:39:35;;;;;;;17.95;10.90;;;0.60;99.90;;;;;;5072323;28;20043;-64
2023/01/28 07:42:01;;;;;;;18.63;11.13;;;0.60;99.90;;;;;;5073684;28;20082;-63
2023/01/28 07:44:26;;;;;;;12.88;10.65;;;0.60;99.90;;;;;;5072312;28;20039;-63
2023/01/28 07:46:52;;;;;;;15.32;11.18;;;0.60;99.90;;;;;;5073537;28;20364;-63
2023/01/28 07:49:18;;;;;;;17.88;11.88;;;0.60;99.90;;;;;;5073327;28;20025;-63
2023/01/28 07:51:45;;;;;;;17.25;11.45;;;0.60;99.90;;;;;;5073462;28;20074;-63
2023/01/28 07:54:11;;;;;;;16.08;10.90;;;0.60;99.90;;;;;;5073451;28;20020;-63
2023/01/28 07:56:37;;;;;;;16.08;11.13;;;0.60;99.90;;;;;;5073428;28;20508;-63
2023/01/28 07:59:03;;;;;;;14.68;10.77;;;0.70;99.90;;;;;;5073338;28;20031;-63
2023/01/28 08:01:29;;;;;;;15.88;10.98;;;0.70;99.90;;;;;;5073495;28;20021;-63
2023/01/28 08:03:54;;;;;;;13.45;10.18;;;0.70;99.90;;;;;;5073494;28;20020;-64
2023/01/28 08:06:20;;;;;;;15.35;10.27;;;0.70;99.90;;;;;;5073302;28;20138;-63
2023/01/28 08:08:46;;;;;;;13.30;9.32;;;0.80;99.90;;;;;;5073177;28;20028;-64
2023/01/28 08:11:12;;;;;;;15.18;9.90;;;0.90;99.90;;;;;;5073431;28;20470;-63
2023/01/28 08:13:37;;;;;;;13.32;9.50;;;0.90;99.90;;;;;;5073424;28;20025;-63
2023/01/28 08:16:04;;;;;;;16.27;10.27;;;1.00;99.90;;;;;;5072075;28;20033;-66
2023/01/28 08:18:29;;;;;;;15.15;10.82;;;1.00;99.90;;;;;;5072919;28;20137;-63
2023/01/28 08:20:56;;;;;;;12.75;10.20;;;1.00;99.90;;;;;;5073077;28;20024;-64
2023/01/28 08:23:21;;;;;;;12.70;10.18;;;1.00;99.90;;;;;;5073080;28;20036;-63
2023/01/28 08:25:47;;;;;;;14.02;10.48;;;1.10;99.90;;;;;;5073308;28;20025;-63
2023/01/28 08:28:15;;;;;;;12.45;9.85;;;1.10;99.90;;;;;;5073274;28;20557;-63
2023/01/28 08:30:41;;;;;;;15.23;10.60;;;1.10;99.90;;;;;;5073050;28;20029;-63
2023/01/28 08:33:09;;;;;;;15.43;10.63;;;1.20;99.90;;;;;;5071877;28;20069;-64
2023/01/28 08:35:34;;;;;;;15.13;10.82;;;1.20;99.90;;;;;;5073210;28;20107;-63
2023/01/28 08:38:01;;;;;;;16.73;10.43;;;1.30;99.90;;;;;;5072921;28;20107;-63
2023/01/28 08:40:27;;;;;;;14.30;9.73;;;1.30;99.90;;;;;;5072928;28;20016;-63
2023/01/28 08:42:54;;;;;;;18.75;11.55;;;1.30;99.90;;;;;;5072915;28;20012;-63
2023/01/28 08:45:21;;;;;;;12.00;9.27;;;1.30;99.90;;;;;;5072897;28;20053;-63
2023/01/28 08:47:52;;;;;;;14.77;10.68;;;1.30;99.90;;;;;;5073120;28;20496;-63
2023/01/28 08:50:19;;;;;;;18.20;11.38;;;1.30;99.90;;;;;;5072788;28;20407;-63
2023/01/28 08:52:46;;;;;;;14.85;9.45;;;1.30;99.90;;;;;;5072836;28;20022;-63
2023/01/28 08:55:12;;;;;;;14.15;9.73;;;1.40;99.90;;;;;;5073043;28;20422;-63
2023/01/28 08:57:38;;;;;;;11.70;9.32;;;1.40;99.90;;;;;;5072770;28;20029;-63
2023/01/28 09:00:07;;;;;;;13.00;9.35;;;1.30;99.90;;;;;;5072956;28;20107;-65
2023/01/28 09:02:32;;;;;;;15.13;9.30;;;1.30;99.90;;;;;;5076715;28;20070;-63
2023/01/28 09:04:58;;;;;;;15.80;9.68;;;1.40;99.90;;;;;;5075313;28;20367;-64
2023/01/28 09:07:23;;;;;;;11.40;8.88;;;1.50;99.90;;;;;;5076434;28;20089;-63
2023/01/28 09:09:49;;;;;;;11.93;8.55;;;1.50;99.90;;;;;;5076409;28;20024;-63
2023/01/28 09:12:15;;;;;;;12.15;8.73;;;1.40;99.90;;;;;;5075053;28;20036;-63
2023/01/28 09:14:41;;;;;;;12.38;9.63;;;1.40;99.90;;;;;;5076654;28;20390;-64
2023/01/28 09:17:07;;;;;;;11.95;8.80;;;1.50;99.90;;;;;;5076092;28;20089;-64
2023/01/28 09:19:32;;;;;;;12.60;8.73;;;1.50;99.90;;;;;;5076293;28;20029;-63
2023/01/28 09:21:58;;;;;;;11.13;9.25;;;1.40;99.90;;;;;;5076189;28;20021;-63
2023/01/28 09:24:23;;;;;;;14.38;9.20;;;1.40;99.90;;;;;;5076080;28;20040;-63
2023/01/28 09:26:49;;;;;;;12.15;9.18;;;1.50;99.90;;;;;;5076063;28;20025;-63
2023/01/28 09:29:15;;;;;;;11.48;8.63;;;1.60;99.90;;;;;;5076080;28;20100;-63
2023/01/28 09:31:41;;;;;;;12.15;8.70;;;1.60;99.90;;;;;;5076224;28;20059;-64
2023/01/28 09:34:08;;;;;;;11.70;8.88;;;1.60;99.90;;;;;;5076205;28;20054;-64
2023/01/28 09:36:33;;;;;;;10.80;8.38;;;1.60;99.90;;;;;;5076157;28;20123;-63
2023/01/28 09:38:59;;;;;;;12.63;8.63;;;1.60;99.90;;;;;;5075803;28;20099;-64
2023/01/28 09:41:29;;;;;;;11.43;8.98;;;1.80;99.90;;;;;;5075779;28;20534;-63
2023/01/28 09:44:05;;;;;;;14.32;8.68;;;1.80;99.90;;;;;;5076048;28;20024;-63
2023/01/28 09:46:34;;;;;;;13.98;9.57;;;1.80;99.90;;;;;;5076058;28;20421;-64
2023/01/28 09:49:08;;;;;;;13.82;9.70;;;1.60;99.90;;;;;;5075697;28;20429;-63
2023/01/28 09:51:40;;;;;;;14.52;9.52;;;1.80;99.90;;;;;;5075745;28;20054;-63
2023/01/28 09:54:18;;;;;;;18.38;11.85;;;1.70;99.90;;;;;;5075561;28;20140;-63
2023/01/28 09:56:46;;;;;;;13.52;10.73;;;1.70;99.90;;;;;;5074337;28;20039;-63
2023/01/28 09:59:21;;;;;;;15.40;10.73;;;1.60;99.90;;;;;;5075704;28;20040;-63
2023/01/28 10:05:01;;;;;;;15.90;11.90;;;1.40;99.90;;;;;;5070601;28;20441;-62
2023/01/28 10:07:55;;;;;;;18.35;11.15;;;1.40;99.90;;;;;;5055236;28;20437;-63
2023/01/28 10:10:25;;;;;;;;;;;1.40;99.90;;;;;;5070827;28;20024;-62
2023/01/28 10:13:14;;;;;;;16.23;11.63;;;1.40;99.90;;;;;;5070662;28;19905;-63
2023/01/28 10:18:42;;;;;;;13.70;10.90;;;1.50;99.90;;;;;;5111101;27;20351;-63
2023/01/28 10:21:38;;;;;;;16.98;10.90;;;1.50;99.90;;;;;;5111055;28;20023;-63
2023/01/28 10:24:29;;;;;;;19.15;12.65;;;1.70;99.90;;;;;;5110955;28;20031;-63
2023/01/28 10:26:56;;;;;;;16.73;12.23;;;1.80;99.90;;;;;;5110842;28;20020;-63
2023/01/28 10:29:26;;;;;;;18.58;12.85;;;1.90;99.90;;;;;;5110866;28;20016;-63
2023/01/28 10:31:58;;;;;;;16.33;12.75;;;1.70;99.90;;;;;;5110784;28;20022;-63
2023/01/28 10:34:24;;;;;;;15.43;12.38;;;1.60;99.90;;;;;;5109596;28;20392;-63
2023/01/28 10:36:50;;;;;;;18.45;12.40;;;1.60;99.90;;;;;;5109414;28;20024;-63
2023/01/28 10:39:21;;;;;;;16.55;13.00;;;1.70;99.90;;;;;;5110729;28;20016;-63
2023/01/28 10:41:47;;;;;;;19.08;12.85;;;1.90;99.90;;;;;;5110955;28;20499;-63
2023/01/28 10:44:26;;;;;;;13.55;11.30;;;2.00;99.90;;;;;;5110595;28;20103;-63
2023/01/28 10:46:52;;;;;;;17.08;12.23;;;2.00;99.90;;;;;;5110784;28;20036;-63
2023/01/28 10:49:22;;;;;;;17.58;12.15;;;2.10;99.90;;;;;;5110476;28;20082;-63
2023/01/28 10:51:48;;;;;;;21.85;13.60;;;2.10;99.90;;;;;;5110490;28;20016;-63
2023/01/28 10:54:29;;;;;;;16.95;12.50;;;2.10;99.90;;;;;;5109219;28;20020;-63
2023/01/28 10:56:58;;;;;;;18.08;13.35;;;2.00;99.90;;;;;;5109415;28;20028;-63
2023/01/28 10:59:27;;;;;;;17.98;13.25;;;1.90;99.90;;;;;;5110329;28;20024;-62
2023/01/28 11:01:56;;;;;;;18.25;14.10;;;1.70;99.90;;;;;;5110337;28;20386;-63
2023/01/28 11:04:29;;;;;;;17.75;13.00;;;1.70;99.90;;;;;;5109103;28;20102;-63
2023/01/28 11:07:00;;;;;;;19.70;13.15;;;1.50;99.90;;;;;;5110499;28;20548;-63
2023/01/28 11:09:30;;;;;;;19.85;13.75;;;1.60;99.90;;;;;;5110394;28;20038;-63
2023/01/28 11:11:57;;;;;;;19.75;13.63;;;1.60;99.90;;;;;;5110332;28;20111;-63
2023/01/28 11:14:26;;;;;;;16.67;12.68;;;1.70;99.90;;;;;;5110251;28;20366;-63
2023/01/28 11:16:54;;;;;;;20.20;15.25;;;1.80;99.90;;;;;;5109772;28;20086;-63
2023/01/28 11:19:26;;;;;;;19.85;14.90;;;1.70;99.90;;;;;;5110215;28;20497;-63
2023/01/28 11:21:54;;;;;;;21.95;15.13;;;1.80;99.90;;;;;;5109884;28;20026;-63
2023/01/28 11:24:25;;;;;;;22.40;15.48;;;1.80;99.90;;;;;;5109842;28;20028;-63
2023/01/28 11:26:54;;;;;;;20.95;14.82;;;1.80;99.90;;;;;;5110009;28;20489;-63
2023/01/28 11:29:30;;;;;;;20.70;15.27;;;1.70;99.90;;;;;;5099404;28;20390;-63
2023/01/28 11:31:58;;;;;;;21.75;15.73;;;1.60;99.90;;;;;;5096001;28;20024;-63
2023/01/28 11:34:28;;;;;;;22.42;15.45;;;1.70;99.90;;;;;;5096040;28;20028;-63
2023/01/28 11:37:02;;;;;;;18.58;14.18;;;1.60;99.90;;;;;;5096234;28;20389;-63
2023/01/28 11:39:28;;;;;;;19.02;14.10;;;1.60;99.90;;;;;;5095909;28;20031;-62
2023/01/28 11:42:11;;;;;;;18.83;13.27;;;1.40;99.90;;;;;;5095908;28;20016;-63
2023/01/28 11:44:38;;;;;;;20.83;13.75;;;1.40;99.90;;;;;;5095944;28;20050;-64
2023/01/28 11:47:18;;;;;;;18.00;13.23;;;1.50;99.90;;;;;;5096124;28;20040;-63
2023/01/28 11:50:13;;;;;;;16.95;12.77;;;1.70;99.90;;;;;;5095669;28;20019;-63
2023/01/28 11:53:18;;;;;;;18.23;13.13;;;1.70;99.90;;;;;;5095823;28;20024;-63
2023/01/28 11:59:03;;;;;;;16.50;13.02;;;1.70;99.90;;;;;;5090824;27;20381;-63
2023/01/28 12:01:53;;;;;;;20.50;13.88;;;1.80;99.90;;;;;;5090583;28;20024;-63
2023/01/28 12:04:44;;;;;;;19.42;14.45;;;1.90;99.90;;;;;;5090590;28;20142;-63
2023/01/28 12:07:37;;;;;;;20.23;13.38;;;1.80;99.90;;;;;;5090360;28;20089;-63
2023/01/28 12:10:25;;;;;;;19.17;14.10;;;1.90;99.90;;;;;;5090521;28;20025;-63
2023/01/28 12:13:30;;;;;;;16.55;13.00;;;1.90;99.90;;;;;;5089089;28;20028;-63
2023/01/28 12:16:13;;;;;;;17.80;13.35;;;2.00;99.90;;;;;;5090290;28;20150;-63
2023/01/28 12:19:19;;;;;;;21.40;13.65;;;2.10;99.90;;;;;;5090458;28;20020;-63
2023/01/28 12:22:20;;;;;;;18.77;12.98;;;2.20;99.90;;;;;;5090166;28;20043;-63
2023/01/28 12:25:08;;;;;;;17.15;13.40;;;2.30;99.90;;;;;;5090143;28;20108;-63
2023/01/28 12:28:03;;;;;;;19.63;12.95;;;2.40;99.90;;;;;;5090217;28;20024;-63
2023/01/28 12:31:08;;;;;;;19.85;14.60;;;2.60;99.90;;;;;;5090051;28;20055;-63
2023/01/28 12:34:14;;;;;;;19.42;13.30;;;2.50;99.90;;;;;;5089937;28;20032;-63
2023/01/28 12:37:02;;;;;;;21.05;14.00;;;2.70;99.90;;;;;;5089829;28;20028;-63
2023/01/28 12:40:07;;;;;;;21.55;14.57;;;2.60;99.90;;;;;;5090225;28;20389;-63
2023/01/28 12:45:34;;;;;;;18.05;13.90;;;2.60;99.90;;;;;;5090691;28;20116;-64
2023/01/28 12:48:23;;;;;;;22.27;15.27;;;2.60;99.90;;;;;;5090331;28;20115;-63
2023/01/28 12:50:57;;;;;;;19.25;13.45;;;2.90;99.90;;;;;;5090548;28;20423;-64
2023/01/28 12:53:35;;;;;;;20.40;14.18;;;3.00;99.90;;;;;;5090814;28;20034;-63
2023/01/28 12:56:15;;;;;;;17.17;13.52;;;3.20;99.90;;;;;;5090524;28;20024;-63
2023/01/28 12:58:48;;;;;;;22.13;14.98;;;3.00;99.90;;;;;;5090486;28;20029;-63
2023/01/28 13:01:20;;;;;;;19.58;14.73;;;2.60;99.90;;;;;;5090432;28;20028;-63
2023/01/28 13:03:55;;;;;;;19.90;15.07;;;2.60;99.90;;;;;;5090556;28;20440;-63
2023/01/28 13:06:43;;;;;;;20.38;14.68;;;2.50;99.90;;;;;;5090501;28;20066;-63
2023/01/28 13:09:19;;;;;;;19.48;13.98;;;2.80;99.90;;;;;;5090244;28;20446;-64
2023/01/28 13:11:48;;;;;;;19.48;14.43;;;2.70;99.90;;;;;;5089133;28;20038;-63
2023/01/28 13:14:15;;;;;;;18.77;15.13;;;2.50;99.90;;;;;;5090447;28;20085;-63
2023/01/28 13:16:40;;;;;;;18.83;14.50;;;2.50;99.90;;;;;;5090341;28;20442;-63
2023/01/28 13:19:23;;;;;;;20.25;14.35;;;2.50;99.90;;;;;;5090310;28;20059;-63
2023/01/28 13:21:49;;;;;;;20.17;15.30;;;2.40;99.90;;;;;;5090339;28;20521;-63
2023/01/28 13:26:54;;;;;;;20.15;15.07;;;2.30;99.90;;;;;;5131571;27;20638;-63
2023/01/28 13:29:29;;;;;;;24.58;15.00;;;2.30;99.90;;;;;;5131590;27;20038;-63
2023/01/28 13:31:58;;;;;;;19.70;14.80;;;2.30;99.90;;;;;;5131505;27;20029;-63
2023/01/28 13:37:34;;;;;;;18.70;14.80;;;2.40;99.90;;;;;;5111210;27;20372;-63
2023/01/28 13:40:23;;;;;;;21.05;15.25;;;2.50;99.90;;;;;;5110923;28;20558;-63
2023/01/28 13:43:23;;;;;;;20.50;15.27;;;2.70;99.90;;;;;;5110811;28;20016;-62
2023/01/28 13:46:12;;;;;;;21.25;14.90;;;2.30;99.90;;;;;;5111058;28;20496;-63